Time;durP1;ratioP1;P1;durP2;ratioP2;P2;SDS_P1;SDS_P2;PMS_P1;PMS_P2;Temp;Humidity;BMP_temperature;BMP_pressure;BME280_temperature;BME280_humidity;BME280_pressure;Samples;Min_cycle;Max_cycle;Signal;HPM_P1;HPM_P2
2022/03/12 00:00:00;;;;;;;12.38;6.35;;;5.80;61.40;;;;;;6075892;23;20369;-84
2022/03/12 00:02:30;;;;;;;11.32;6.40;;;6.00;60.80;;;;;;6123933;23;20022;-84
2022/03/12 00:04:56;;;;;;;10.10;6.28;;;6.00;60.40;;;;;;6125822;23;20021;-84
2022/03/12 00:07:22;;;;;;;12.05;6.45;;;6.10;60.20;;;;;;6101888;23;20092;-84
2022/03/12 00:09:47;;;;;;;10.48;6.70;;;6.00;60.40;;;;;;6101672;23;20104;-84
2022/03/12 00:12:17;;;;;;;11.45;6.65;;;6.00;60.00;;;;;;6102053;23;20022;-84
2022/03/12 00:14:46;;;;;;;10.55;6.30;;;6.00;59.80;;;;;;6101621;23;20017;-84
2022/03/12 00:17:13;;;;;;;16.20;6.50;;;6.10;60.00;;;;;;6078657;23;20044;-84
2022/03/12 00:19:41;;;;;;;10.27;6.70;;;6.10;60.10;;;;;;6101903;23;20021;-84
2022/03/12 00:22:08;;;;;;;12.52;6.35;;;6.20;60.10;;;;;;6101438;23;20021;-84
2022/03/12 00:24:34;;;;;;;12.07;6.13;;;6.00;59.90;;;;;;6126328;23;20018;-84
2022/03/12 00:27:00;;;;;;;9.85;5.97;;;6.10;59.80;;;;;;6150670;23;20032;-84
2022/03/12 00:29:27;;;;;;;10.68;6.10;;;6.10;59.70;;;;;;6125786;23;20253;-85
2022/03/12 00:31:54;;;;;;;12.05;6.80;;;6.10;59.50;;;;;;6101231;23;20112;-85
2022/03/12 00:34:20;;;;;;;8.88;5.80;;;6.10;60.00;;;;;;6101657;23;20493;-84
2022/03/12 00:36:47;;;;;;;10.88;6.28;;;6.00;60.10;;;;;;6101400;23;20100;-84
2022/03/12 00:39:15;;;;;;;10.50;6.25;;;6.80;60.30;;;;;;6077833;23;20473;-84
2022/03/12 00:41:44;;;;;;;9.50;5.95;;;6.10;60.50;;;;;;6125893;23;20028;-84
2022/03/12 00:44:13;;;;;;;13.57;6.70;;;5.90;60.40;;;;;;6101184;23;20654;-84
2022/03/12 00:46:39;;;;;;;8.63;6.00;;;5.90;60.80;;;;;;6125651;23;20021;-84
2022/03/12 00:49:05;;;;;;;11.10;6.00;;;5.90;60.80;;;;;;6101333;23;20024;-84
2022/03/12 00:51:31;;;;;;;9.85;6.25;;;5.80;61.10;;;;;;6101534;23;20014;-84
2022/03/12 00:53:57;;;;;;;11.00;6.28;;;5.80;61.40;;;;;;6150101;23;20100;-84
2022/03/12 00:56:22;;;;;;;11.48;6.55;;;5.80;61.30;;;;;;6150240;23;20596;-84
2022/03/12 00:58:48;;;;;;;11.75;6.07;;;5.80;61.40;;;;;;6125844;23;20115;-85
2022/03/12 01:01:14;;;;;;;9.95;6.50;;;6.00;61.40;;;;;;6100855;23;20017;-84
2022/03/12 01:03:40;;;;;;;8.95;6.63;;;5.80;61.40;;;;;;6101098;23;20052;-84
2022/03/12 01:06:07;;;;;;;11.10;5.82;;;6.30;61.80;;;;;;6101179;23;20018;-84
2022/03/12 01:08:35;;;;;;;11.20;6.50;;;5.80;61.40;;;;;;6101294;23;20017;-84
2022/03/12 01:11:06;;;;;;;11.77;6.28;;;5.70;61.30;;;;;;6101084;23;20005;-84
2022/03/12 01:13:31;;;;;;;10.95;5.88;;;6.30;61.80;;;;;;6150363;23;20025;-84
2022/03/12 01:15:58;;;;;;;9.20;6.25;;;5.80;61.50;;;;;;6100468;23;20017;-85
2022/03/12 01:18:25;;;;;;;9.07;6.05;;;5.80;61.20;;;;;;6150189;23;20018;-84
2022/03/12 01:20:52;;;;;;;11.32;6.50;;;5.80;61.30;;;;;;6126351;23;20089;-84
2022/03/12 01:23:22;;;;;;;11.68;6.25;;;5.80;61.30;;;;;;6102108;23;20018;-84
2022/03/12 01:25:48;;;;;;;9.27;6.50;;;5.80;61.50;;;;;;6101818;23;20018;-83
2022/03/12 01:28:16;;;;;;;12.77;5.97;;;5.70;61.70;;;;;;6102005;23;20020;-83
2022/03/12 01:30:42;;;;;;;10.40;6.47;;;5.80;61.20;;;;;;6126234;23;20021;-84
2022/03/12 01:33:08;;;;;;;9.38;6.32;;;5.80;61.20;;;;;;6126376;23;20354;-83
2022/03/12 01:35:34;;;;;;;9.05;5.90;;;6.10;61.20;;;;;;6101863;23;20018;-84
2022/03/12 01:38:02;;;;;;;11.82;6.57;;;5.80;61.20;;;;;;6077455;23;20018;-84
2022/03/12 01:40:28;;;;;;;9.32;6.07;;;5.80;61.30;;;;;;6101687;23;20025;-85
2022/03/12 01:42:54;;;;;;;11.40;6.30;;;5.80;61.00;;;;;;6101630;23;20037;-84
2022/03/12 01:45:27;;;;;;;11.20;5.85;;;6.10;60.80;;;;;;6101118;23;20021;-84
2022/03/12 01:47:55;;;;;;;11.27;6.05;;;5.80;60.90;;;;;;6101395;23;20060;-84
2022/03/12 01:50:23;;;;;;;9.73;6.13;;;5.80;60.50;;;;;;6124927;23;20025;-84
2022/03/12 01:52:49;;;;;;;9.57;6.15;;;5.90;60.50;;;;;;6101666;23;20018;-85
2022/03/12 01:55:15;;;;;;;11.73;5.82;;;5.90;60.60;;;;;;6125588;23;20013;-85
2022/03/12 01:57:42;;;;;;;11.73;6.28;;;5.90;60.20;;;;;;6101276;23;20441;-84
2022/03/12 02:00:22;;;;;;;9.38;6.05;;;5.90;60.30;;;;;;6126064;23;20024;-85
2022/03/12 02:02:53;;;;;;;7.50;5.82;;;6.70;60.20;;;;;;6126232;23;20017;-84
2022/03/12 02:05:20;;;;;;;9.15;6.25;;;5.90;60.30;;;;;;6125661;23;20017;-84
2022/03/12 02:07:46;;;;;;;12.93;6.35;;;5.90;60.50;;;;;;6100821;23;20021;-84
2022/03/12 02:10:17;;;;;;;9.85;6.28;;;5.90;60.30;;;;;;6101055;23;20024;-84
2022/03/12 02:12:42;;;;;;;11.93;6.22;;;5.90;60.40;;;;;;6126052;23;20419;-85
2022/03/12 02:15:09;;;;;;;10.05;5.93;;;5.90;60.00;;;;;;6125863;23;20056;-84
2022/03/12 02:17:38;;;;;;;11.48;5.82;;;5.90;60.50;;;;;;6101428;23;20021;-84
2022/03/12 02:20:07;;;;;;;9.00;6.18;;;5.90;60.80;;;;;;6101068;23;20025;-84
2022/03/12 02:22:33;;;;;;;11.20;6.70;;;5.90;60.70;;;;;;6101592;23;20025;-84
2022/03/12 02:24:59;;;;;;;9.50;6.07;;;5.80;60.60;;;;;;6101755;23;20025;-84
2022/03/12 02:27:25;;;;;;;10.90;6.60;;;5.80;61.30;;;;;;6101040;23;20031;-84
2022/03/12 02:29:57;;;;;;;14.48;6.60;;;5.80;61.10;;;;;;6100885;23;20121;-84
2022/03/12 02:32:23;;;;;;;11.10;6.10;;;5.70;61.40;;;;;;6100840;23;20029;-84
2022/03/12 02:34:50;;;;;;;11.48;6.50;;;5.70;61.10;;;;;;6101528;23;20013;-84
2022/03/12 02:37:28;;;;;;;9.93;6.20;;;5.60;61.90;;;;;;6125488;23;20014;-84
2022/03/12 02:39:55;;;;;;;10.25;6.38;;;5.60;61.60;;;;;;6125551;23;20080;-84
2022/03/12 02:42:21;;;;;;;13.77;7.18;;;5.60;61.70;;;;;;6101129;23;20021;-84
2022/03/12 02:44:49;;;;;;;11.07;6.60;;;5.60;62.00;;;;;;6150282;23;20017;-84
2022/03/12 02:47:22;;;;;;;14.65;6.63;;;5.60;62.10;;;;;;6100929;23;20029;-84
2022/03/12 02:49:53;;;;;;;11.18;6.20;;;5.60;61.70;;;;;;6100830;23;20024;-84
2022/03/12 02:52:21;;;;;;;11.68;6.20;;;5.60;61.90;;;;;;6101333;23;20056;-84
2022/03/12 02:54:49;;;;;;;11.68;6.47;;;5.50;62.20;;;;;;6101100;23;20052;-84
2022/03/12 02:57:16;;;;;;;13.15;6.70;;;5.60;61.70;;;;;;6101475;23;20053;-84
2022/03/12 02:59:43;;;;;;;12.00;6.10;;;5.50;62.20;;;;;;6149504;23;20022;-84
2022/03/12 03:02:10;;;;;;;14.40;7.05;;;5.50;62.30;;;;;;6100964;23;20049;-84
2022/03/12 03:04:38;;;;;;;11.25;6.80;;;5.50;61.80;;;;;;6100965;23;20021;-84
2022/03/12 03:07:04;;;;;;;12.45;6.70;;;5.50;61.90;;;;;;6101303;23;20078;-84
2022/03/12 03:09:30;;;;;;;11.40;6.72;;;5.50;61.80;;;;;;6125321;23;20689;-84
2022/03/12 03:11:57;;;;;;;13.32;6.60;;;6.10;62.10;;;;;;6150008;23;20483;-84
2022/03/12 03:14:26;;;;;;;9.93;6.15;;;5.60;61.90;;;;;;6101002;23;20025;-84
2022/03/12 03:16:53;;;;;;;11.85;7.20;;;5.60;61.60;;;;;;6125431;23;20567;-84
2022/03/12 03:19:24;;;;;;;12.07;6.85;;;5.60;61.40;;;;;;6076686;23;20021;-84
2022/03/12 03:21:51;;;;;;;9.13;5.82;;;6.00;61.90;;;;;;6100688;23;20021;-84
2022/03/12 03:24:17;;;;;;;8.25;5.63;;;5.70;61.90;;;;;;6125439;23;20052;-84
2022/03/12 03:26:43;;;;;;;9.93;5.63;;;5.70;62.10;;;;;;6100777;23;20084;-84
2022/03/12 03:29:09;;;;;;;10.45;6.30;;;6.30;62.30;;;;;;6101310;23;20024;-84
2022/03/12 03:31:36;;;;;;;10.90;5.95;;;5.50;62.00;;;;;;6124973;23;20017;-84
2022/03/12 03:34:02;;;;;;;9.43;6.03;;;5.40;61.90;;;;;;6149934;23;20018;-84
2022/03/12 03:36:28;;;;;;;10.43;6.20;;;5.40;62.10;;;;;;6101186;23;20024;-84
2022/03/12 03:38:54;;;;;;;11.15;6.18;;;5.40;62.20;;;;;;6126079;23;20018;-84
2022/03/12 03:41:20;;;;;;;12.70;6.82;;;5.70;61.90;;;;;;6127046;23;20661;-84
2022/03/12 03:43:47;;;;;;;10.82;5.45;;;5.60;62.20;;;;;;6126649;23;20025;-84
2022/03/12 03:46:17;;;;;;;11.15;5.93;;;5.40;62.20;;;;;;6102491;23;20033;-84
2022/03/12 03:48:46;;;;;;;11.52;6.63;;;5.30;62.80;;;;;;6102741;23;20219;-84
2022/03/12 03:51:13;;;;;;;10.38;6.55;;;5.30;62.20;;;;;;6127145;23;20032;-84
2022/03/12 03:53:38;;;;;;;11.70;7.15;;;5.30;62.50;;;;;;6126930;23;20039;-84
2022/03/12 03:56:05;;;;;;;11.95;5.88;;;5.30;62.50;;;;;;6078722;23;20392;-84
2022/03/12 03:58:32;;;;;;;9.95;6.40;;;5.20;62.60;;;;;;6151502;23;20025;-84
2022/03/12 04:01:18;;;;;;;14.73;6.60;;;5.20;62.30;;;;;;6102357;23;20009;-84
2022/03/12 04:03:47;;;;;;;11.40;6.10;;;4.50;62.20;;;;;;6151710;23;20022;-84
2022/03/12 04:06:17;;;;;;;9.45;5.90;;;5.50;62.40;;;;;;6126956;23;20500;-84
2022/03/12 04:08:43;;;;;;;8.38;5.60;;;5.20;62.80;;;;;;6078825;23;20082;-84
2022/03/12 04:11:15;;;;;;;10.40;6.50;;;5.10;62.40;;;;;;6151473;23;20442;-84
2022/03/12 04:13:41;;;;;;;8.43;6.18;;;5.20;63.00;;;;;;6102590;23;20017;-85
2022/03/12 04:16:07;;;;;;;10.95;6.03;;;5.10;62.80;;;;;;6102528;23;20390;-84
2022/03/12 04:18:34;;;;;;;11.23;5.88;;;5.00;62.60;;;;;;6151660;23;20029;-84
2022/03/12 04:21:00;;;;;;;12.18;5.93;;;5.10;62.70;;;;;;6102292;23;20461;-85
2022/03/12 04:23:27;;;;;;;8.70;5.03;;;4.70;62.60;;;;;;6102671;23;20013;-84
2022/03/12 04:25:57;;;;;;;9.68;6.22;;;5.80;63.10;;;;;;6102249;23;20646;-84
2022/03/12 04:28:24;;;;;;;11.07;5.95;;;5.00;62.80;;;;;;6102570;23;20025;-84
2022/03/12 04:30:50;;;;;;;8.55;6.00;;;5.40;63.50;;;;;;6126539;23;20017;-84
2022/03/12 04:33:19;;;;;;;10.05;6.20;;;4.90;63.20;;;;;;6102461;23;20045;-84
2022/03/12 04:35:46;;;;;;;9.73;5.80;;;4.90;63.40;;;;;;6126841;23;20025;-84
2022/03/12 04:38:13;;;;;;;9.50;5.70;;;4.80;63.00;;;;;;6102558;23;20025;-85
2022/03/12 04:40:40;;;;;;;9.45;6.00;;;4.90;63.00;;;;;;6102213;23;20014;-84
2022/03/12 04:43:09;;;;;;;9.00;6.20;;;4.90;63.00;;;;;;6102636;23;20055;-84
2022/03/12 04:45:36;;;;;;;9.50;6.07;;;4.90;63.00;;;;;;6126459;23;20065;-84
2022/03/12 04:48:02;;;;;;;10.85;5.57;;;4.80;63.00;;;;;;6101950;23;20450;-84
2022/03/12 04:50:28;;;;;;;10.85;5.97;;;4.80;63.00;;;;;;6101888;23;20500;-84
2022/03/12 04:52:58;;;;;;;9.35;5.63;;;4.80;63.70;;;;;;6151402;23;20025;-84
2022/03/12 04:55:26;;;;;;;9.20;5.68;;;4.70;63.40;;;;;;6126584;23;20348;-84
2022/03/12 04:57:52;;;;;;;9.10;6.05;;;4.70;63.90;;;;;;6151290;23;20493;-84
2022/03/12 05:00:25;;;;;;;8.60;5.15;;;4.60;63.70;;;;;;6101432;23;20510;-84
2022/03/12 05:03:03;;;;;;;9.38;6.03;;;4.60;63.50;;;;;;6102045;23;20064;-84
2022/03/12 05:05:30;;;;;;;9.77;5.47;;;4.60;63.60;;;;;;6126617;23;20017;-85
2022/03/12 05:07:58;;;;;;;8.93;5.75;;;4.60;63.50;;;;;;6101792;23;20021;-83
2022/03/12 05:10:27;;;;;;;7.63;5.40;;;4.50;64.00;;;;;;6126577;23;20041;-84
2022/03/12 05:13:00;;;;;;;10.70;6.00;;;4.50;63.60;;;;;;6102354;23;20021;-84
2022/03/12 05:15:34;;;;;;;12.20;5.63;;;4.50;63.80;;;;;;6126558;23;20013;-84
2022/03/12 05:18:00;;;;;;;9.18;5.65;;;4.50;64.10;;;;;;6101802;23;20045;-84
2022/03/12 05:20:27;;;;;;;13.15;6.47;;;4.40;63.90;;;;;;6126490;23;20033;-84
2022/03/12 05:22:53;;;;;;;10.63;6.50;;;4.40;64.00;;;;;;6101813;23;20017;-83
2022/03/12 05:25:19;;;;;;;9.98;5.55;;;5.10;64.20;;;;;;6101604;23;20026;-84
2022/03/12 05:27:53;;;;;;;8.75;5.00;;;4.30;64.20;;;;;;6102130;23;20032;-84
2022/03/12 05:30:20;;;;;;;9.38;5.47;;;4.30;64.70;;;;;;6125772;23;20018;-84
2022/03/12 05:32:46;;;;;;;10.60;5.78;;;4.30;64.70;;;;;;6101788;23;20013;-84
2022/03/12 05:35:12;;;;;;;11.40;5.70;;;4.20;64.80;;;;;;6126059;23;20013;-84
2022/03/12 05:37:40;;;;;;;10.70;6.03;;;4.20;64.80;;;;;;6126433;23;20130;-84
2022/03/12 05:40:09;;;;;;;9.93;5.22;;;4.20;64.90;;;;;;6078338;23;20017;-84
2022/03/12 05:42:35;;;;;;;13.65;5.82;;;4.10;65.40;;;;;;6101887;23;20058;-84
2022/03/12 05:45:09;;;;;;;8.60;5.53;;;4.10;65.30;;;;;;6126236;23;20045;-84
2022/03/12 05:47:40;;;;;;;9.38;6.05;;;4.10;65.70;;;;;;6125793;23;20017;-84
2022/03/12 05:50:12;;;;;;;8.93;5.82;;;4.00;65.50;;;;;;6078106;23;20652;-84
2022/03/12 05:52:48;;;;;;;10.02;5.70;;;4.00;65.50;;;;;;6101395;23;20025;-84
2022/03/12 05:55:19;;;;;;;11.40;5.85;;;4.00;65.60;;;;;;6101436;23;20017;-84
2022/03/12 05:57:45;;;;;;;9.55;5.75;;;3.90;65.60;;;;;;6125667;23;20394;-84
2022/03/12 06:00:12;;;;;;;11.43;6.00;;;3.90;65.80;;;;;;6125864;23;20018;-83
2022/03/12 06:02:44;;;;;;;10.05;6.13;;;3.90;66.40;;;;;;6149571;23;20123;-84
2022/03/12 06:05:12;;;;;;;9.23;5.97;;;3.90;66.10;;;;;;6150208;23;20032;-84
2022/03/12 06:07:38;;;;;;;9.98;5.95;;;3.90;66.20;;;;;;6100572;23;20601;-83
2022/03/12 06:10:05;;;;;;;11.60;5.60;;;4.00;66.30;;;;;;6101169;23;20021;-83
2022/03/12 06:12:31;;;;;;;11.73;5.85;;;4.00;65.90;;;;;;6101294;23;20032;-83
2022/03/12 06:14:57;;;;;;;12.00;6.50;;;4.10;65.80;;;;;;6101062;23;20017;-83
2022/03/12 06:17:27;;;;;;;7.93;5.60;;;4.10;66.20;;;;;;6101074;23;20029;-84
2022/03/12 06:19:53;;;;;;;11.02;6.18;;;4.10;65.80;;;;;;6100885;23;20409;-84
2022/03/12 06:22:18;;;;;;;9.05;5.85;;;4.20;65.80;;;;;;6101400;23;20021;-84
2022/03/12 06:24:46;;;;;;;7.63;5.63;;;4.20;65.70;;;;;;6076939;23;20468;-84
2022/03/12 06:27:12;;;;;;;9.18;5.70;;;4.30;65.40;;;;;;6101101;23;20446;-84
2022/03/12 06:29:38;;;;;;;12.23;5.95;;;4.30;65.50;;;;;;6101671;23;20693;-84
2022/03/12 06:32:06;;;;;;;11.13;6.00;;;4.30;65.60;;;;;;6124941;23;20021;-84
2022/03/12 06:34:34;;;;;;;9.00;5.93;;;4.30;65.40;;;;;;6101339;23;20073;-84
2022/03/12 06:36:59;;;;;;;10.50;5.80;;;4.40;65.20;;;;;;6100979;23;20326;-84
2022/03/12 06:39:25;;;;;;;17.67;6.03;;;4.40;65.60;;;;;;6100929;23;20029;-84
2022/03/12 06:41:51;;;;;;;10.55;5.80;;;4.90;65.80;;;;;;6100811;23;20123;-84
2022/03/12 06:44:17;;;;;;;16.60;5.95;;;4.50;65.50;;;;;;6101057;23;20017;-84
2022/03/12 06:46:44;;;;;;;12.60;6.20;;;4.60;66.20;;;;;;6100983;23;20017;-84
2022/03/12 06:49:11;;;;;;;12.80;6.40;;;4.50;65.60;;;;;;6101351;23;20021;-84
2022/03/12 06:51:38;;;;;;;11.15;5.20;;;5.10;65.90;;;;;;6101051;23;20150;-84
2022/03/12 06:54:04;;;;;;;13.20;6.40;;;5.00;66.20;;;;;;6077704;23;20444;-85
2022/03/12 06:56:34;;;;;;;8.38;6.18;;;4.70;66.10;;;;;;6077532;23;20021;-84
2022/03/12 06:59:00;;;;;;;13.10;6.22;;;5.50;67.10;;;;;;6101079;23;20104;-84
2022/03/12 07:01:25;;;;;;;11.73;6.03;;;4.70;66.40;;;;;;6149805;23;20396;-84
2022/03/12 07:03:51;;;;;;;18.55;6.43;;;4.70;65.80;;;;;;6101235;23;20049;-84
2022/03/12 07:06:18;;;;;;;14.43;6.70;;;4.80;66.50;;;;;;6125876;23;20017;-84
2022/03/12 07:08:44;;;;;;;14.15;5.97;;;5.20;66.50;;;;;;6101196;23;20017;-84
2022/03/12 07:11:11;;;;;;;10.48;6.05;;;5.70;66.10;;;;;;6100969;23;20472;-84
2022/03/12 07:13:37;;;;;;;10.45;6.28;;;5.10;65.40;;;;;;6102268;23;20029;-84
2022/03/12 07:16:03;;;;;;;9.50;5.95;;;5.30;65.40;;;;;;6103533;23;20497;-84
2022/03/12 07:18:29;;;;;;;7.78;5.47;;;5.30;64.80;;;;;;6152114;23;20018;-84
2022/03/12 07:20:55;;;;;;;8.88;5.90;;;5.40;65.40;;;;;;6127567;23;20014;-84
2022/03/12 07:23:22;;;;;;;11.25;5.95;;;5.50;64.90;;;;;;6103184;23;20013;-84
2022/03/12 07:25:48;;;;;;;12.30;6.55;;;5.60;64.70;;;;;;6103128;23;20041;-84
2022/03/12 07:28:17;;;;;;;14.45;6.22;;;6.40;65.30;;;;;;6102879;23;20052;-84
2022/03/12 07:30:43;;;;;;;9.98;6.05;;;5.70;65.20;;;;;;6103906;23;20349;-84
2022/03/12 07:33:09;;;;;;;11.55;6.63;;;5.80;65.00;;;;;;6127171;23;20053;-84
2022/03/12 07:35:35;;;;;;;10.50;6.32;;;5.80;65.20;;;;;;6126869;23;20014;-85
2022/03/12 07:38:01;;;;;;;10.68;6.18;;;5.80;65.00;;;;;;6127653;23;20548;-85
2022/03/12 07:40:27;;;;;;;9.43;5.70;;;6.50;65.40;;;;;;6102882;23;20018;-86
2022/03/12 07:42:54;;;;;;;12.98;7.13;;;5.90;64.40;;;;;;6102698;23;20017;-86
2022/03/12 07:45:20;;;;;;;11.25;6.28;;;5.90;64.60;;;;;;6127094;23;20047;-85
2022/03/12 07:47:47;;;;;;;19.67;7.07;;;5.90;64.70;;;;;;6102600;23;20449;-85
2022/03/12 07:50:13;;;;;;;12.23;6.50;;;5.90;65.20;;;;;;6151422;23;20390;-86
2022/03/12 07:52:39;;;;;;;12.23;6.47;;;6.70;65.30;;;;;;6102743;23;20020;-85
2022/03/12 07:55:07;;;;;;;13.07;6.80;;;6.00;65.10;;;;;;6126893;23;20014;-85
2022/03/12 07:57:33;;;;;;;10.77;6.03;;;6.30;65.40;;;;;;6151594;23;20473;-85
2022/03/12 07:59:59;;;;;;;13.57;6.72;;;6.70;64.60;;;;;;6151485;23;20017;-86
2022/03/12 08:02:25;;;;;;;11.40;6.30;;;7.10;64.10;;;;;;6102162;23;20124;-85
2022/03/12 08:04:51;;;;;;;11.98;6.65;;;7.30;63.60;;;;;;6102449;23;20026;-88
2022/03/12 08:07:17;;;;;;;10.95;6.68;;;7.40;63.70;;;;;;6102480;23;20021;-88
2022/03/12 08:09:42;;;;;;;11.85;6.82;;;7.40;62.80;;;;;;6078330;23;20416;-86
2022/03/12 08:12:08;;;;;;;10.80;6.45;;;7.40;62.90;;;;;;6103046;23;20454;-88
2022/03/12 08:14:34;;;;;;;10.98;7.13;;;7.40;63.10;;;;;;6102724;23;20153;-91
2022/03/12 08:17:00;;;;;;;10.85;6.93;;;7.50;62.80;;;;;;6102658;23;20017;-91
2022/03/12 08:19:26;;;;;;;12.20;7.07;;;7.80;62.10;;;;;;6078128;23;20049;-87
2022/03/12 08:21:52;;;;;;;10.40;6.20;;;7.80;63.00;;;;;;6101265;23;20364;-86
2022/03/12 08:24:19;;;;;;;12.18;6.38;;;7.80;61.70;;;;;;6101061;23;20025;-89
2022/03/12 08:26:47;;;;;;;9.65;6.63;;;7.90;62.50;;;;;;6101069;23;20101;-86
2022/03/12 08:29:15;;;;;;;10.63;7.05;;;8.00;62.80;;;;;;6102302;23;20009;-86
2022/03/12 08:31:42;;;;;;;9.63;6.65;;;8.10;62.70;;;;;;6126136;23;20075;-88
2022/03/12 08:34:09;;;;;;;11.68;6.80;;;8.40;62.70;;;;;;6150595;23;20010;-86
2022/03/12 08:36:35;;;;;;;9.35;6.68;;;8.60;61.80;;;;;;6102314;23;20021;-87
2022/03/12 08:39:01;;;;;;;12.80;6.35;;;8.90;62.10;;;;;;6101555;23;20352;-89
2022/03/12 08:41:27;;;;;;;13.27;6.60;;;9.40;62.00;;;;;;6150642;23;20029;-90
2022/03/12 08:43:53;;;;;;;16.02;7.95;;;9.40;60.20;;;;;;6125703;23;20014;-87
2022/03/12 08:46:19;;;;;;;13.20;7.25;;;9.50;60.80;;;;;;6121425;23;20033;-87
2022/03/12 08:48:45;;;;;;;12.73;7.40;;;9.50;60.10;;;;;;6120381;23;20022;-85
2022/03/12 08:51:11;;;;;;;10.73;7.53;;;9.90;60.70;;;;;;6120543;23;20476;-86
2022/03/12 08:53:38;;;;;;;10.15;6.63;;;10.20;60.00;;;;;;6072615;23;20022;-86
2022/03/12 08:56:05;;;;;;;11.27;7.40;;;10.30;60.00;;;;;;6072729;23;20022;-87
2022/03/12 08:58:31;;;;;;;11.27;7.45;;;10.50;59.50;;;;;;6072183;23;20022;-86
2022/03/12 09:01:03;;;;;;;12.75;7.70;;;10.40;59.60;;;;;;6071371;23;20553;-87
2022/03/12 09:03:30;;;;;;;15.20;6.88;;;10.50;60.50;;;;;;6073552;23;20123;-90
2022/03/12 09:05:56;;;;;;;12.43;6.95;;;10.70;60.30;;;;;;6097520;23;20060;-87
2022/03/12 09:08:22;;;;;;;10.75;7.28;;;10.70;60.10;;;;;;6072336;23;20014;-89
2022/03/12 09:10:47;;;;;;;11.88;7.85;;;10.50;60.70;;;;;;6120168;23;20022;-88
2022/03/12 09:13:16;;;;;;;9.82;7.15;;;10.70;61.40;;;;;;6097048;23;20327;-89
2022/03/12 09:15:43;;;;;;;11.65;7.28;;;10.80;61.20;;;;;;6071942;23;20030;-89
2022/03/12 09:18:10;;;;;;;12.18;7.55;;;10.80;62.00;;;;;;6072773;23;20073;-88
2022/03/12 09:20:45;;;;;;;12.70;7.47;;;10.70;61.90;;;;;;6072616;23;20014;-89
2022/03/12 09:23:15;;;;;;;12.40;7.40;;;10.90;62.20;;;;;;6050432;23;20014;-89
2022/03/12 09:25:42;;;;;;;11.40;8.00;;;11.20;62.40;;;;;;6072310;23;20025;-89
2022/03/12 09:28:09;;;;;;;12.15;7.93;;;11.50;62.30;;;;;;6120661;23;20024;-89
2022/03/12 09:30:34;;;;;;;10.88;6.75;;;11.50;62.10;;;;;;6071901;23;20026;-90
2022/03/12 09:33:00;;;;;;;13.20;7.78;;;11.70;63.40;;;;;;6072596;23;20010;-92
2022/03/12 09:35:28;;;;;;;14.27;7.95;;;12.10;63.10;;;;;;6073122;23;20065;-90
2022/03/12 09:37:55;;;;;;;16.95;8.02;;;12.70;63.20;;;;;;6072858;23;20097;-91
2022/03/12 09:40:21;;;;;;;12.25;7.68;;;13.20;62.40;;;;;;6072055;23;20033;-89
2022/03/12 09:42:47;;;;;;;12.43;7.47;;;13.00;62.30;;;;;;6072751;23;20024;-89
2022/03/12 09:45:14;;;;;;;12.77;7.90;;;12.70;63.50;;;;;;6096524;23;20057;-90
2022/03/12 09:47:41;;;;;;;10.88;7.90;;;13.10;63.50;;;;;;6091767;23;20027;-90
2022/03/12 09:50:07;;;;;;;11.55;7.28;;;13.60;63.60;;;;;;6101049;23;20022;-89
2022/03/12 09:52:33;;;;;;;13.20;7.82;;;13.60;63.00;;;;;;6126260;23;20520;-89
2022/03/12 09:54:58;;;;;;;10.07;7.20;;;13.90;63.50;;;;;;6101613;23;20045;-90
2022/03/12 09:57:24;;;;;;;11.75;7.68;;;14.30;63.30;;;;;;6101777;23;20017;-90
2022/03/12 09:59:50;;;;;;;12.82;7.68;;;14.60;62.30;;;;;;6101722;23;20105;-91
2022/03/12 10:02:16;;;;;;;12.07;7.90;;;15.20;62.50;;;;;;6077302;23;20017;-91
2022/03/12 10:04:44;;;;;;;11.13;7.70;;;15.20;61.40;;;;;;6101377;23;20044;-91
2022/03/12 10:07:10;;;;;;;13.82;7.03;;;15.20;62.20;;;;;;6100827;23;20029;-91
2022/03/12 10:09:39;;;;;;;11.65;8.30;;;15.70;62.50;;;;;;6077852;23;20032;-91
2022/03/12 10:12:09;;;;;;;12.68;7.75;;;16.00;61.20;;;;;;6101961;23;20025;-92
2022/03/12 10:14:40;;;;;;;13.15;7.65;;;15.50;61.30;;;;;;6102084;23;20018;-90
2022/03/12 10:17:09;;;;;;;13.40;7.97;;;15.50;61.80;;;;;;6102862;23;20028;-91
2022/03/12 10:19:36;;;;;;;10.77;8.10;;;15.10;62.40;;;;;;6102682;23;20357;-92
2022/03/12 10:22:03;;;;;;;11.75;8.13;;;15.20;62.50;;;;;;6105719;23;20720;-91
2022/03/12 10:24:28;;;;;;;12.30;8.23;;;15.80;63.20;;;;;;6101961;23;20390;-91
2022/03/12 10:26:54;;;;;;;10.68;7.25;;;16.60;63.10;;;;;;6101750;23;20029;-91
2022/03/12 10:29:20;;;;;;;12.48;7.57;;;17.00;61.60;;;;;;6102308;23;20025;-91
2022/03/12 10:31:46;;;;;;;13.00;7.75;;;17.40;61.40;;;;;;6101904;23;20383;-91
2022/03/12 10:34:20;;;;;;;22.83;8.63;;;17.70;60.80;;;;;;6078341;23;20377;-92
2022/03/12 10:36:48;;;;;;;13.15;8.40;;;17.40;61.20;;;;;;6128154;23;20056;-94
2022/03/12 10:39:37;;;;;;;12.25;7.80;;;16.80;61.50;;;;;;6116958;23;20021;-91
2022/03/12 10:42:10;;;;;;;11.70;7.80;;;16.50;62.90;;;;;;6154815;23;20015;-93
2022/03/12 10:44:37;;;;;;;10.77;8.00;;;16.30;63.30;;;;;;6125181;23;20104;-92
2022/03/12 10:47:23;;;;;;;11.05;7.75;;;16.40;62.40;;;;;;6124195;23;20453;-92
2022/03/12 10:49:57;;;;;;;9.63;7.30;;;16.30;63.90;;;;;;6121043;23;20472;-91
2022/03/12 10:52:31;;;;;;;11.18;7.80;;;15.90;64.80;;;;;;6104953;23;20030;-92
2022/03/12 10:54:58;;;;;;;10.05;7.72;;;16.00;65.00;;;;;;6103577;23;20014;-91
2022/03/12 10:57:24;;;;;;;13.23;8.00;;;16.00;66.10;;;;;;6102578;23;20065;-92
2022/03/12 10:59:54;;;;;;;10.07;7.38;;;16.50;66.40;;;;;;6103059;23;20022;-91
2022/03/12 11:02:21;;;;;;;11.43;7.55;;;16.50;66.10;;;;;;6104483;23;20033;-91
2022/03/12 11:04:47;;;;;;;11.02;7.97;;;16.90;64.80;;;;;;6100977;23;20022;-85
2022/03/12 11:07:30;;;;;;;10.32;7.70;;;17.00;65.80;;;;;;6124696;23;20028;-84
2022/03/12 11:09:56;;;;;;;11.32;8.00;;;16.50;67.00;;;;;;6099976;23;20013;-85
2022/03/12 11:12:37;;;;;;;10.70;7.82;;;16.70;67.30;;;;;;6100278;23;20470;-84
2022/03/12 11:15:05;;;;;;;9.80;7.47;;;16.50;67.00;;;;;;6150141;23;20060;-84
2022/03/12 11:17:45;;;;;;;10.65;7.68;;;16.20;67.80;;;;;;6100122;23;20060;-83
2022/03/12 11:20:21;;;;;;;11.00;7.47;;;16.40;68.60;;;;;;6100066;23;20026;-84
2022/03/12 11:22:52;;;;;;;11.07;7.72;;;16.40;69.20;;;;;;6148951;23;20024;-83
2022/03/12 11:25:22;;;;;;;10.68;7.35;;;16.60;68.60;;;;;;6124203;23;20087;-83
2022/03/12 11:27:50;;;;;;;10.68;7.40;;;16.60;68.40;;;;;;6100278;23;20111;-84
2022/03/12 11:30:21;;;;;;;8.90;7.03;;;16.90;68.30;;;;;;6100257;23;20017;-83
2022/03/12 11:32:50;;;;;;;10.10;7.57;;;16.80;68.90;;;;;;6106359;23;20496;-84
2022/03/12 11:35:22;;;;;;;12.30;8.00;;;16.80;68.70;;;;;;6102584;23;20025;-85
2022/03/12 11:37:50;;;;;;;8.48;7.22;;;15.80;69.60;;;;;;6100792;23;20018;-85
2022/03/12 11:40:19;;;;;;;10.10;7.68;;;16.00;70.10;;;;;;6100881;23;20450;-85
2022/03/12 11:42:45;;;;;;;11.82;7.50;;;16.00;70.40;;;;;;6099896;23;20029;-84
2022/03/12 11:45:16;;;;;;;11.98;7.10;;;16.00;70.60;;;;;;6099699;23;20017;-84
2022/03/12 11:47:44;;;;;;;10.57;6.70;;;16.20;70.90;;;;;;6124524;23;20018;-83
2022/03/12 11:50:23;;;;;;;11.18;7.85;;;16.20;71.40;;;;;;6100106;23;20056;-84
2022/03/12 11:52:54;;;;;;;11.07;6.55;;;16.30;70.70;;;;;;6124976;23;20028;-94
2022/03/12 11:55:22;;;;;;;11.82;6.63;;;16.00;70.70;;;;;;6099971;23;20337;-87
2022/03/12 11:57:51;;;;;;;10.85;6.93;;;15.70;71.50;;;;;;6150383;23;20017;-88
2022/03/12 12:00:29;;;;;;;11.82;7.95;;;15.70;71.90;;;;;;6100388;23;20021;-86
2022/03/12 12:02:55;;;;;;;11.75;7.05;;;16.10;72.10;;;;;;6102522;23;20021;-87
2022/03/12 12:05:23;;;;;;;12.43;7.90;;;16.30;71.50;;;;;;6102178;23;20018;-86
2022/03/12 12:07:52;;;;;;;10.00;7.20;;;16.50;72.20;;;;;;6102443;23;20017;-87
2022/03/12 12:10:26;;;;;;;9.80;7.70;;;16.40;70.30;;;;;;6102461;23;20024;-87
2022/03/12 12:12:52;;;;;;;11.45;7.25;;;16.00;72.40;;;;;;6101924;23;20072;-87
2022/03/12 12:15:28;;;;;;;11.00;7.38;;;15.60;71.60;;;;;;6151324;23;20481;-87
2022/03/12 12:17:55;;;;;;;12.30;8.15;;;15.40;72.50;;;;;;6101962;23;20022;-87
2022/03/12 12:20:23;;;;;;;12.20;7.95;;;15.40;72.70;;;;;;6126769;23;20348;-86
2022/03/12 12:22:50;;;;;;;10.45;7.65;;;15.40;73.60;;;;;;6101752;23;20080;-86
2022/03/12 12:25:17;;;;;;;12.90;7.90;;;15.50;73.40;;;;;;6126279;23;20024;-86
2022/03/12 12:27:46;;;;;;;12.20;7.82;;;15.40;73.40;;;;;;6101766;23;20128;-87
2022/03/12 12:30:16;;;;;;;10.07;7.65;;;15.10;73.50;;;;;;6101897;23;20346;-86
2022/03/12 12:32:48;;;;;;;11.07;8.35;;;15.20;74.90;;;;;;6101464;23;20109;-87
2022/03/12 12:35:21;;;;;;;11.70;7.43;;;15.30;74.40;;;;;;6101783;23;20017;-87
2022/03/12 12:38:04;;;;;;;11.40;7.55;;;15.50;74.10;;;;;;6125923;23;20052;-87
2022/03/12 12:40:44;;;;;;;10.63;7.55;;;15.30;73.90;;;;;;6126176;23;20017;-86
2022/03/12 12:43:13;;;;;;;9.43;6.70;;;15.10;74.70;;;;;;6101479;23;20033;-88
2022/03/12 12:45:55;;;;;;;11.10;6.50;;;14.90;75.30;;;;;;6101661;23;20021;-87
2022/03/12 12:48:30;;;;;;;;;;;14.50;76.00;;;;;;6101973;23;20049;-87